createdAt,value
2023-05-22T00:01:59.041Z,23.13
2023-05-22T00:04:30.153Z,23.88
2023-05-22T00:06:56.682Z,26.53
2023-05-22T00:09:26.135Z,22.02
2023-05-22T00:11:52.987Z,26.90
2023-05-22T00:14:19.396Z,26.75
2023-05-22T00:16:48.323Z,26.33
2023-05-22T00:19:16.580Z,26.47
2023-05-22T00:21:43.685Z,24.98
2023-05-22T00:24:10.271Z,25.23
2023-05-22T00:26:36.761Z,24.98
2023-05-22T00:29:05.591Z,31.10
2023-05-22T00:31:32.059Z,34.30
2023-05-22T00:33:59.340Z,28.63
2023-05-22T00:36:25.795Z,41.53
2023-05-22T00:38:52.256Z,39.92
2023-05-22T00:41:18.902Z,37.45
2023-05-22T00:43:45.551Z,34.30
2023-05-22T00:46:12.713Z,44.83
2023-05-22T00:48:39.260Z,32.90
2023-05-22T00:51:07.165Z,32.25
2023-05-22T00:53:33.828Z,25.65
2023-05-22T00:56:01.006Z,30.90
2023-05-22T00:58:27.688Z,38.97
2023-05-22T01:00:55.340Z,27.13
2023-05-22T01:03:27.044Z,35.60
2023-05-22T01:05:54.553Z,43.00
2023-05-22T01:08:21.405Z,36.37
2023-05-22T01:10:54.387Z,29.20
2023-05-22T01:16:32.255Z,39.78
2023-05-22T01:19:03.157Z,37.22
2023-05-22T01:22:04.306Z,48.40
2023-05-22T01:25:12.003Z,29.30
2023-05-22T01:28:07.626Z,37.05
2023-05-22T01:30:42.778Z,54.67
2023-05-22T01:33:09.844Z,47.67
2023-05-22T01:35:40.490Z,46.73
2023-05-22T01:38:08.983Z,32.03
2023-05-22T01:40:36.466Z,38.40
2023-05-22T01:43:03.370Z,36.95
2023-05-22T01:45:31.664Z,45.33
2023-05-22T01:47:58.818Z,40.10
2023-05-22T01:50:26.499Z,42.88
2023-05-22T01:53:08.612Z,52.08
2023-05-22T01:55:45.183Z,51.03
2023-05-22T01:58:26.776Z,41.53
2023-05-22T02:01:00.953Z,44.97
2023-05-22T02:03:31.396Z,37.92
2023-05-22T02:06:01.566Z,39.28
2023-05-22T02:08:28.945Z,36.95
2023-05-22T02:10:57.213Z,30.02
2023-05-22T02:13:24.004Z,34.97
2023-05-22T02:15:51.385Z,26.92
2023-05-22T02:18:17.926Z,28.02
2023-05-22T02:20:46.191Z,49.22
2023-05-22T02:23:12.646Z,35.65
2023-05-22T02:25:39.134Z,31.83
2023-05-22T02:28:05.678Z,35.08
2023-05-22T02:30:32.562Z,30.13
2023-05-22T02:33:00.275Z,44.60
2023-05-22T02:35:26.796Z,36.17
2023-05-22T02:37:53.250Z,40.50
2023-05-22T02:40:19.930Z,32.03
2023-05-22T02:42:46.336Z,49.53
2023-05-22T02:45:12.788Z,41.75
2023-05-22T02:47:39.247Z,38.17
2023-05-22T02:50:06.422Z,39.00
2023-05-22T02:52:32.878Z,28.02
2023-05-22T02:54:59.338Z,34.90
2023-05-22T02:57:25.786Z,35.05
2023-05-22T02:59:52.533Z,52.30
2023-05-22T03:02:19.599Z,39.67
2023-05-22T03:04:46.418Z,33.58
2023-05-22T03:07:12.792Z,35.22
2023-05-22T03:09:39.192Z,38.65
2023-05-22T03:12:05.989Z,35.97
2023-05-22T03:14:32.466Z,35.80
2023-05-22T03:16:58.939Z,38.25
2023-05-22T03:19:25.502Z,36.55
2023-05-22T03:21:52.049Z,76.57
2023-05-22T03:24:18.536Z,131.20
2023-05-22T03:26:44.958Z,88.93
2023-05-22T03:29:11.526Z,96.28
2023-05-22T03:31:38.016Z,65.95
2023-05-22T03:34:05.914Z,93.60
2023-05-22T03:36:35.952Z,65.78
2023-05-22T03:39:03.413Z,83.23
2023-05-22T03:41:29.864Z,94.70
2023-05-22T03:43:57.324Z,103.78
2023-05-22T03:46:24.105Z,143.50
2023-05-22T03:48:50.673Z,161.93
2023-05-22T03:51:18.725Z,116.93
2023-05-22T03:53:46.589Z,174.05
2023-05-22T03:56:12.949Z,148.55
2023-05-22T03:58:39.395Z,199.15
2023-05-22T04:01:05.849Z,140.48
2023-05-22T04:03:32.335Z,131.37
2023-05-22T04:05:58.781Z,93.32
2023-05-22T04:08:25.304Z,105.57
2023-05-22T04:10:54.461Z,115.68
2023-05-22T04:13:21.045Z,85.53
2023-05-22T04:15:47.604Z,38.03
2023-05-22T04:18:14.533Z,68.40
2023-05-22T04:20:41.711Z,105.35
2023-05-22T04:23:08.366Z,77.63
2023-05-22T04:25:36.392Z,89.18
2023-05-22T04:28:03.898Z,61.63
2023-05-22T04:30:37.518Z,56.97
2023-05-22T04:33:05.556Z,34.83
2023-05-22T04:35:32.321Z,49.83
2023-05-22T04:38:01.989Z,35.63
2023-05-22T04:40:30.409Z,33.77
2023-05-22T04:42:59.895Z,39.17
2023-05-22T04:45:28.616Z,38.28
2023-05-22T04:47:55.972Z,30.95
2023-05-22T04:50:23.803Z,30.50
2023-05-22T04:52:50.288Z,32.47
2023-05-22T04:55:16.872Z,37.20
2023-05-22T04:57:45.958Z,38.53
2023-05-22T05:00:14.447Z,36.80
2023-05-22T05:02:41.183Z,32.45
2023-05-22T05:05:08.010Z,38.97
2023-05-22T05:07:37.670Z,38.65
2023-05-22T05:10:04.488Z,27.42
2023-05-22T05:12:30.826Z,32.33
2023-05-22T05:14:57.248Z,34.38
2023-05-22T05:17:23.942Z,40.17
2023-05-22T05:19:50.399Z,38.55
2023-05-22T05:22:16.930Z,29.83
2023-05-22T05:24:43.436Z,34.28
2023-05-22T05:27:09.970Z,32.72
2023-05-22T05:29:36.767Z,38.67
2023-05-22T05:32:04.059Z,42.80
2023-05-22T05:34:30.460Z,34.53
2023-05-22T05:36:57.355Z,39.28
2023-05-22T05:39:23.897Z,29.40
2023-05-22T05:41:50.277Z,30.13
2023-05-22T05:44:16.651Z,32.33
2023-05-22T05:46:43.215Z,35.13
2023-05-22T05:49:11.147Z,31.60
2023-05-22T05:51:38.633Z,30.23
2023-05-22T05:54:05.436Z,31.97
2023-05-22T05:56:31.821Z,33.88
2023-05-22T05:58:58.184Z,25.15
2023-05-22T06:01:26.992Z,33.58
2023-05-22T06:03:53.822Z,25.42
2023-05-22T06:06:20.536Z,28.57
2023-05-22T06:08:46.983Z,24.73
2023-05-22T06:11:13.387Z,27.55
2023-05-22T06:13:39.841Z,24.90
2023-05-22T06:16:06.963Z,27.38
2023-05-22T06:18:33.521Z,29.80
2023-05-22T06:21:00.058Z,25.25
2023-05-22T06:23:26.596Z,30.15
2023-05-22T06:25:53.898Z,27.17
2023-05-22T06:28:20.396Z,27.20
2023-05-22T06:30:46.983Z,25.93
2023-05-22T06:33:14.441Z,28.35
2023-05-22T06:35:41.051Z,32.70
2023-05-22T06:38:07.600Z,24.33
2023-05-22T06:40:34.070Z,24.58
2023-05-22T06:43:01.383Z,27.67
2023-05-22T06:45:27.752Z,27.77
2023-05-22T06:47:55.027Z,28.75
2023-05-22T06:50:22.233Z,30.27
2023-05-22T06:52:49.204Z,30.20
2023-05-22T06:55:15.773Z,23.90
2023-05-22T06:57:42.174Z,23.65
2023-05-22T07:00:11.597Z,21.08
2023-05-22T07:02:38.694Z,19.50
2023-05-22T07:05:05.548Z,23.73
2023-05-22T07:07:32.026Z,25.93
2023-05-22T07:09:58.588Z,20.38
2023-05-22T07:12:27.588Z,20.20
2023-05-22T07:14:54.597Z,18.65
2023-05-22T07:17:21.777Z,17.13
2023-05-22T07:19:48.923Z,20.03
2023-05-22T07:22:15.699Z,15.73
2023-05-22T07:24:42.201Z,16.40
2023-05-22T07:27:09.212Z,17.40
2023-05-22T07:29:36.449Z,13.80
2023-05-22T07:32:03.065Z,14.90
2023-05-22T07:34:34.068Z,14.95
2023-05-22T07:37:06.385Z,15.82
2023-05-22T07:39:32.813Z,13.38
2023-05-22T07:41:59.566Z,17.45
2023-05-22T07:44:27.880Z,12.60
2023-05-22T07:46:55.488Z,14.48
2023-05-22T07:49:23.370Z,14.88
2023-05-22T07:51:49.941Z,13.70
2023-05-22T07:54:16.562Z,18.17
2023-05-22T07:56:43.010Z,13.90
2023-05-22T07:59:12.536Z,15.57
2023-05-22T08:01:40.125Z,15.88
2023-05-22T08:04:06.791Z,13.43
2023-05-22T08:06:35.037Z,14.05
2023-05-22T08:09:02.378Z,13.23
2023-05-22T08:11:29.165Z,12.02
2023-05-22T08:13:56.260Z,13.65
2023-05-22T08:16:23.261Z,14.68
2023-05-22T08:18:49.926Z,12.40
2023-05-22T08:21:16.404Z,13.33
2023-05-22T08:23:42.817Z,13.75
2023-05-22T08:26:09.550Z,13.10
2023-05-22T08:28:36.792Z,14.55
2023-05-22T08:31:03.272Z,12.30
2023-05-22T08:33:29.823Z,12.43
2023-05-22T08:35:56.302Z,14.70
2023-05-22T08:38:22.786Z,15.50
2023-05-22T08:40:50.231Z,11.32
2023-05-22T08:43:16.818Z,11.55
2023-05-22T08:45:43.978Z,18.23
2023-05-22T08:48:13.545Z,10.20
2023-05-22T08:50:43.362Z,13.48
2023-05-22T08:53:13.410Z,11.85
2023-05-22T08:55:40.038Z,11.20
2023-05-22T08:58:06.777Z,10.77
2023-05-22T09:00:33.597Z,13.00
2023-05-22T09:03:00.147Z,11.35
2023-05-22T09:05:27.224Z,11.80
2023-05-22T09:08:02.720Z,10.82
2023-05-22T09:10:31.999Z,11.47
2023-05-22T09:13:07.709Z,15.45
2023-05-22T09:15:35.370Z,11.30
2023-05-22T09:18:06.100Z,11.85
2023-05-22T09:20:38.020Z,12.68
2023-05-22T09:23:12.358Z,14.20
2023-05-22T09:25:38.798Z,11.35
2023-05-22T09:28:05.163Z,12.10
2023-05-22T09:30:34.667Z,12.73
2023-05-22T09:33:01.281Z,12.45
2023-05-22T09:35:30.524Z,14.70
2023-05-22T09:38:00.069Z,16.50
2023-05-22T09:40:27.648Z,15.70
2023-05-22T09:42:54.018Z,16.00
2023-05-22T09:45:25.164Z,17.60
2023-05-22T09:47:51.627Z,17.93
2023-05-22T09:50:18.498Z,14.95
2023-05-22T09:52:46.827Z,13.00
2023-05-22T09:55:14.084Z,15.15
2023-05-22T09:57:45.090Z,15.60
2023-05-22T10:00:14.214Z,13.10
2023-05-22T10:02:44.858Z,12.75
2023-05-22T10:05:12.916Z,8.85
2023-05-22T10:07:49.669Z,10.90
2023-05-22T10:10:19.009Z,10.98
2023-05-22T10:12:51.385Z,10.50
2023-05-22T10:15:18.763Z,10.43
2023-05-22T10:17:45.538Z,10.73
2023-05-22T10:20:13.141Z,11.50
2023-05-22T10:22:39.612Z,11.73
2023-05-22T10:25:08.531Z,12.90
2023-05-22T10:27:37.005Z,11.27
2023-05-22T10:30:34.142Z,13.73
2023-05-22T10:33:12.203Z,11.95
2023-05-22T10:36:03.965Z,10.80
2023-05-22T10:39:04.197Z,13.27
2023-05-22T10:41:31.255Z,9.88
2023-05-22T10:43:58.162Z,9.52
2023-05-22T10:46:25.059Z,9.98
2023-05-22T10:48:54.121Z,9.60
2023-05-22T10:51:22.783Z,10.20
2023-05-22T10:53:59.362Z,11.13
2023-05-22T10:56:33.775Z,10.93
2023-05-22T10:59:08.165Z,10.82
2023-05-22T11:01:37.850Z,9.77
2023-05-22T11:04:05.173Z,10.20
2023-05-22T11:06:50.214Z,11.35
2023-05-22T11:09:30.364Z,13.00
2023-05-22T11:12:22.684Z,10.80
2023-05-22T11:15:06.196Z,9.85
2023-05-22T11:17:39.889Z,11.33
2023-05-22T11:20:24.717Z,10.35
2023-05-22T11:23:00.547Z,8.35
2023-05-22T11:25:28.305Z,11.85
2023-05-22T11:27:56.078Z,12.02
2023-05-22T11:30:26.712Z,10.37
2023-05-22T11:32:53.521Z,10.77
2023-05-22T11:35:21.983Z,9.10
2023-05-22T11:37:49.794Z,10.30
2023-05-22T11:40:18.195Z,9.57
2023-05-22T11:42:44.796Z,9.53
2023-05-22T11:45:11.501Z,8.85
2023-05-22T11:47:38.509Z,9.45
2023-05-22T11:50:06.787Z,9.30
2023-05-22T11:52:34.527Z,9.45
2023-05-22T11:55:01.135Z,8.87
2023-05-22T11:57:28.352Z,8.73
2023-05-22T11:59:54.876Z,10.60
2023-05-22T12:02:21.394Z,7.30
2023-05-22T12:04:47.785Z,8.45
2023-05-22T12:07:14.278Z,9.27
2023-05-22T12:09:42.286Z,7.40
2023-05-22T12:12:12.048Z,7.72
2023-05-22T12:14:38.501Z,7.63
2023-05-22T12:17:05.144Z,7.20
2023-05-22T12:19:32.535Z,6.60
2023-05-22T12:21:59.320Z,6.28
2023-05-22T12:24:25.846Z,6.38
2023-05-22T12:26:56.395Z,7.32
2023-05-22T12:29:23.534Z,7.10
2023-05-22T12:31:50.710Z,12.10
2023-05-22T12:34:21.142Z,6.68
2023-05-22T12:36:48.294Z,6.70
2023-05-22T12:39:18.668Z,6.95
2023-05-22T12:41:46.097Z,6.95
2023-05-22T12:44:15.288Z,8.77
2023-05-22T12:46:42.067Z,7.25
2023-05-22T12:49:08.984Z,6.72
2023-05-22T12:51:35.442Z,6.50
2023-05-22T12:54:03.006Z,7.90
2023-05-22T12:56:30.573Z,7.30
2023-05-22T12:58:58.005Z,7.20
2023-05-22T13:01:25.393Z,6.55
2023-05-22T13:03:52.711Z,7.60
2023-05-22T13:06:19.928Z,6.85
2023-05-22T13:08:46.453Z,8.63
2023-05-22T13:11:12.895Z,9.68
2023-05-22T13:13:39.826Z,12.70
2023-05-22T13:16:06.389Z,11.30
2023-05-22T13:18:32.840Z,11.80
2023-05-22T13:21:00.218Z,10.47
2023-05-22T13:23:26.607Z,14.50
2023-05-22T13:25:53.250Z,9.23
2023-05-22T13:28:19.710Z,7.47
2023-05-22T13:30:46.207Z,13.45
2023-05-22T13:33:13.567Z,16.20
2023-05-22T13:35:40.599Z,8.75
2023-05-22T13:38:07.296Z,6.45
2023-05-22T13:40:33.699Z,9.52
2023-05-22T13:43:00.249Z,6.13
2023-05-22T13:45:27.646Z,6.73
2023-05-22T13:47:54.202Z,6.85
2023-05-22T13:50:20.690Z,6.13
2023-05-22T13:52:47.108Z,7.10
2023-05-22T13:55:13.664Z,5.45
2023-05-22T13:57:40.663Z,5.63
2023-05-22T14:00:08.965Z,4.80
2023-05-22T14:02:35.743Z,7.53
2023-05-22T14:05:02.252Z,6.63
2023-05-22T14:07:31.398Z,6.97
2023-05-22T14:10:00.426Z,6.80
2023-05-22T14:12:27.724Z,6.53
2023-05-22T14:14:54.320Z,4.25
2023-05-22T14:17:20.874Z,5.85
2023-05-22T14:19:47.354Z,5.50
2023-05-22T14:22:13.722Z,25.40
2023-05-22T14:24:40.184Z,3.47
2023-05-22T14:27:06.588Z,5.70
2023-05-22T14:29:33.058Z,6.05
2023-05-22T14:32:04.301Z,7.95
2023-05-22T14:34:30.843Z,5.37
2023-05-22T14:36:58.381Z,7.47
2023-05-22T14:39:25.802Z,9.75
2023-05-22T14:41:55.038Z,8.85
2023-05-22T14:44:22.499Z,6.78
2023-05-22T14:46:50.826Z,4.53
2023-05-22T14:49:17.359Z,8.25
2023-05-22T14:51:47.671Z,6.78
2023-05-22T14:54:20.562Z,5.85
2023-05-22T14:56:47.110Z,10.10
2023-05-22T14:59:14.184Z,6.23
2023-05-22T15:01:41.088Z,6.03
2023-05-22T15:04:08.839Z,4.65
2023-05-22T15:06:35.590Z,4.50
2023-05-22T15:09:01.962Z,4.07
2023-05-22T15:11:28.413Z,3.37
2023-05-22T15:13:54.846Z,5.05
2023-05-22T15:16:22.314Z,3.83
2023-05-22T15:18:48.994Z,5.13
2023-05-22T15:21:15.640Z,4.05
2023-05-22T15:23:42.194Z,4.13
2023-05-22T15:26:08.862Z,4.10
2023-05-22T15:28:35.309Z,5.63
2023-05-22T15:31:01.666Z,4.95
2023-05-22T15:33:28.388Z,2.60
2023-05-22T15:35:54.819Z,4.23
2023-05-22T15:38:21.319Z,3.00
2023-05-22T15:40:47.781Z,2.22
2023-05-22T15:43:14.242Z,3.28
2023-05-22T15:45:41.108Z,1.98
2023-05-22T15:48:07.881Z,2.20
2023-05-22T15:50:34.512Z,1.80
2023-05-22T15:53:01.354Z,1.73
2023-05-22T15:55:28.195Z,1.85
2023-05-22T15:57:54.765Z,2.88
2023-05-22T16:00:21.484Z,1.30
2023-05-22T16:02:49.079Z,2.58
2023-05-22T16:05:15.685Z,1.65
2023-05-22T16:07:42.238Z,2.88
2023-05-22T16:10:09.925Z,1.92
2023-05-22T16:12:36.594Z,2.37
2023-05-22T16:15:06.599Z,4.43
2023-05-22T16:17:33.298Z,3.65
2023-05-22T16:19:59.670Z,2.53
2023-05-22T16:22:36.348Z,3.25
2023-05-22T16:25:13.063Z,3.10
2023-05-22T16:27:39.431Z,4.07
2023-05-22T16:30:06.548Z,3.85
2023-05-22T16:32:33.047Z,2.65
2023-05-22T16:34:59.550Z,3.20
2023-05-22T16:37:26.154Z,3.83
2023-05-22T16:39:52.700Z,3.70
2023-05-22T16:42:19.136Z,3.65
2023-05-22T16:44:45.844Z,2.33
2023-05-22T16:47:12.420Z,2.80
2023-05-22T16:49:40.304Z,6.83
2023-05-22T16:52:06.679Z,7.25
2023-05-22T16:54:33.078Z,4.65
2023-05-22T16:56:59.629Z,4.03
2023-05-22T16:59:26.113Z,2.20
2023-05-22T17:01:52.896Z,2.23
2023-05-22T17:04:20.608Z,2.47
2023-05-22T17:06:47.952Z,2.63
2023-05-22T17:09:14.640Z,6.20
2023-05-22T17:11:41.217Z,2.67
2023-05-22T17:14:07.656Z,4.00
2023-05-22T17:16:34.116Z,4.35
2023-05-22T17:19:01.879Z,3.17
2023-05-22T17:21:28.815Z,2.22
2023-05-22T17:23:56.273Z,2.08
2023-05-22T17:26:22.799Z,2.90
2023-05-22T17:28:49.205Z,3.65
2023-05-22T17:31:16.403Z,4.30
2023-05-22T17:33:43.505Z,4.65
2023-05-22T17:36:09.959Z,2.30
2023-05-22T17:38:36.427Z,3.80
2023-05-22T17:41:02.861Z,5.20
2023-05-22T17:43:29.390Z,3.13
2023-05-22T17:45:55.877Z,4.13
2023-05-22T17:48:26.839Z,3.00
2023-05-22T17:50:53.630Z,5.53
2023-05-22T17:53:21.014Z,6.15
2023-05-22T17:55:49.520Z,5.50
2023-05-22T17:58:16.843Z,3.50
2023-05-22T18:00:43.581Z,4.47
2023-05-22T18:03:10.193Z,4.30
2023-05-22T18:05:36.881Z,4.90
2023-05-22T18:08:03.320Z,6.25
2023-05-22T18:10:29.757Z,5.40
2023-05-22T18:12:56.511Z,4.25
2023-05-22T18:15:23.186Z,5.43
2023-05-22T18:17:49.647Z,5.95
2023-05-22T18:20:16.874Z,4.35
2023-05-22T18:22:43.353Z,4.60
2023-05-22T18:25:10.326Z,3.88
2023-05-22T18:27:36.722Z,3.37
2023-05-22T18:30:05.040Z,4.40
2023-05-22T18:32:31.829Z,4.70
2023-05-22T18:34:59.715Z,4.30
2023-05-22T18:37:26.520Z,5.55
2023-05-22T18:39:52.901Z,5.37
2023-05-22T18:42:19.359Z,4.13
2023-05-22T18:44:48.211Z,6.32
2023-05-22T18:47:15.712Z,5.18
2023-05-22T18:49:42.217Z,3.97
2023-05-22T18:52:08.852Z,4.93
2023-05-22T18:54:35.249Z,4.53
2023-05-22T18:57:01.617Z,6.45
2023-05-22T18:59:27.994Z,3.67
2023-05-22T19:01:54.358Z,3.63
2023-05-22T19:04:20.895Z,7.30
2023-05-22T19:06:47.281Z,4.28
2023-05-22T19:09:13.787Z,5.63
2023-05-22T19:11:40.258Z,5.95
2023-05-22T19:14:06.743Z,7.80
2023-05-22T19:16:33.253Z,5.73
2023-05-22T19:18:59.781Z,4.38
2023-05-22T19:21:26.629Z,8.45
2023-05-22T19:23:53.052Z,9.15
2023-05-22T19:26:19.447Z,7.10
2023-05-22T19:28:45.973Z,7.40
2023-05-22T19:31:12.414Z,9.00
2023-05-22T19:33:39.351Z,6.32
2023-05-22T19:36:06.724Z,4.88
2023-05-22T19:38:33.354Z,3.50
2023-05-22T19:40:59.760Z,8.30
2023-05-22T19:43:26.291Z,5.35
2023-05-22T19:45:52.696Z,5.53
2023-05-22T19:48:19.155Z,7.95
2023-05-22T19:50:45.719Z,4.50
2023-05-22T19:53:12.178Z,6.20
2023-05-22T19:55:38.581Z,4.40
2023-05-22T19:58:05.057Z,8.75
2023-05-22T20:00:31.809Z,5.43
2023-05-22T20:02:58.331Z,5.70
2023-05-22T20:05:25.889Z,8.30
2023-05-22T20:07:52.419Z,8.05
2023-05-22T20:10:18.915Z,8.30
2023-05-22T20:12:45.874Z,7.68
2023-05-22T20:15:14.694Z,10.35
2023-05-22T20:17:42.148Z,8.03
2023-05-22T20:20:09.535Z,8.80
2023-05-22T20:22:36.096Z,7.78
2023-05-22T20:25:04.274Z,6.78
2023-05-22T20:27:30.685Z,5.50
2023-05-22T20:29:59.847Z,8.03
2023-05-22T20:32:26.770Z,8.27
2023-05-22T20:34:55.286Z,6.07
2023-05-22T20:37:22.261Z,10.85
2023-05-22T20:39:49.982Z,8.07
2023-05-22T20:42:19.409Z,8.00
2023-05-22T20:44:46.184Z,10.27
2023-05-22T20:47:12.548Z,6.07
2023-05-22T20:49:38.977Z,7.47
2023-05-22T20:52:05.783Z,2.55
2023-05-22T20:54:34.582Z,5.00
2023-05-22T20:57:01.577Z,3.53
2023-05-22T20:59:28.956Z,4.60
2023-05-22T21:01:56.772Z,4.38
2023-05-22T21:04:23.713Z,4.95
2023-05-22T21:06:50.305Z,5.27
2023-05-22T21:09:16.884Z,3.38
2023-05-22T21:11:43.308Z,3.83
2023-05-22T21:14:09.699Z,3.42
2023-05-22T21:16:39.141Z,2.47
2023-05-22T21:19:06.986Z,4.93
2023-05-22T21:21:33.521Z,6.70
2023-05-22T21:24:00.025Z,3.40
2023-05-22T21:26:27.425Z,2.42
2023-05-22T21:28:54.613Z,5.65
2023-05-22T21:31:21.184Z,2.10
2023-05-22T21:33:47.621Z,2.30
2023-05-22T21:36:14.054Z,3.42
2023-05-22T21:38:40.608Z,4.53
2023-05-22T21:41:07.046Z,3.60
2023-05-22T21:43:33.484Z,1.83
2023-05-22T21:45:59.948Z,4.57
2023-05-22T21:48:26.336Z,2.75
2023-05-22T21:50:52.715Z,2.95
2023-05-22T21:53:19.103Z,2.40
2023-05-22T21:55:45.671Z,2.60
2023-05-22T21:58:13.566Z,3.58
2023-05-22T22:00:40.995Z,2.97
2023-05-22T22:03:07.858Z,3.00
2023-05-22T22:05:35.664Z,2.00
2023-05-22T22:08:02.292Z,3.87
2023-05-22T22:10:28.806Z,3.72
2023-05-22T22:12:55.276Z,3.13
2023-05-22T22:15:21.786Z,2.72
2023-05-22T22:17:48.203Z,3.08
2023-05-22T22:20:14.678Z,4.03
2023-05-22T22:22:41.115Z,4.20
2023-05-22T22:25:08.066Z,3.05
2023-05-22T22:27:34.476Z,3.47
2023-05-22T22:30:01.945Z,6.82
2023-05-22T22:32:28.442Z,2.80
2023-05-22T22:34:55.085Z,3.80
2023-05-22T22:37:21.915Z,5.30
2023-05-22T22:39:48.321Z,4.13
2023-05-22T22:42:14.817Z,6.35
2023-05-22T22:44:41.249Z,7.50
2023-05-22T22:47:07.701Z,4.93
2023-05-22T22:49:34.203Z,5.10
2023-05-22T22:52:00.784Z,4.47
2023-05-22T22:54:27.323Z,6.50
2023-05-22T22:56:53.955Z,6.07
2023-05-22T22:59:20.382Z,5.10
2023-05-22T23:01:47.168Z,7.05
2023-05-22T23:04:14.081Z,5.40
2023-05-22T23:06:43.418Z,7.85
2023-05-22T23:09:11.028Z,5.07
2023-05-22T23:11:38.198Z,4.38
2023-05-22T23:14:08.834Z,9.52
2023-05-22T23:16:37.570Z,7.72
2023-05-22T23:19:04.823Z,8.48
2023-05-22T23:21:32.114Z,6.00
2023-05-22T23:23:59.336Z,9.82
2023-05-22T23:26:26.774Z,4.40
2023-05-22T23:28:53.510Z,4.47
2023-05-22T23:31:25.776Z,6.35
2023-05-22T23:33:52.993Z,5.67
2023-05-22T23:36:19.467Z,11.85
2023-05-22T23:38:48.825Z,8.18
2023-05-22T23:41:17.372Z,13.63
2023-05-22T23:43:44.793Z,9.93
2023-05-22T23:46:14.587Z,12.90
2023-05-22T23:48:41.990Z,10.73
2023-05-22T23:51:14.352Z,9.38
2023-05-22T23:53:42.225Z,7.75
2023-05-22T23:56:09.381Z,8.70
2023-05-22T23:58:37.133Z,7.40
